Time;durP1;ratioP1;P1;durP2;ratioP2;P2;SDS_P1;SDS_P2;PMS_P1;PMS_P2;Temp;Humidity;BMP_temperature;BMP_pressure;BME280_temperature;BME280_humidity;BME280_pressure;Samples;Min_cycle;Max_cycle;Signal;HPM_P1;HPM_P2
2023/07/08 00:00:28;;;;;;;6.53;4.35;;;;;;;17.41;100.00;96010.41;1046683;28;20020;-74
2023/07/08 00:00:59;;;;;;;6.15;3.65;;;;;;;17.39;100.00;96007.25;1046786;28;20078;-74
2023/07/08 00:01:29;;;;;;;7.70;4.25;;;;;;;17.38;100.00;96011.78;1050275;28;20028;-75
2023/07/08 00:02:00;;;;;;;5.78;3.67;;;;;;;17.25;100.00;95991.38;1046621;28;20025;-76
2023/07/08 00:02:30;;;;;;;7.80;3.70;;;;;;;17.37;100.00;96014.72;1047905;28;20050;-75
2023/07/08 00:03:01;;;;;;;5.90;3.83;;;;;;;17.36;100.00;96013.16;1050953;28;20028;-75
2023/07/08 00:03:31;;;;;;;8.95;4.47;;;;;;;17.34;100.00;96008.16;1050812;28;20776;-75
2023/07/08 00:04:03;;;;;;;6.60;3.92;;;;;;;17.35;100.00;96008.94;1051051;28;20024;-75
2023/07/08 00:04:34;;;;;;;8.35;4.40;;;;;;;17.34;100.00;96015.34;1050835;28;20021;-74
2023/07/08 00:05:05;;;;;;;6.38;4.53;;;;;;;17.33;100.00;96008.44;1051080;28;20024;-75
2023/07/08 00:05:35;;;;;;;7.32;4.22;;;;;;;17.15;100.00;95986.31;1050702;28;20048;-75
2023/07/08 00:06:13;;;;;;;6.43;3.58;;;;;;;17.26;100.00;96006.19;1050368;28;20016;-75
2023/07/08 00:06:43;;;;;;;6.55;4.05;;;;;;;17.20;100.00;96000.25;1046327;28;20017;-75
2023/07/08 00:07:21;;;;;;;7.90;4.65;;;;;;;17.11;100.00;95988.75;1046564;28;20382;-75
2023/07/08 00:07:52;;;;;;;6.43;4.05;;;;;;;17.26;100.00;96011.50;1050405;28;20675;-74
2023/07/08 00:08:22;;;;;;;8.00;3.78;;;;;;;17.24;100.00;96010.25;1054054;28;20024;-75
2023/07/08 00:08:53;;;;;;;5.35;3.90;;;;;;;17.22;100.00;96009.75;1059182;28;20023;-76
2023/07/08 00:09:23;;;;;;;6.28;4.20;;;;;;;17.22;100.00;96007.09;1059147;28;20389;-75
2023/07/08 00:09:54;;;;;;;7.45;4.03;;;;;;;17.21;100.00;96011.63;1050806;28;20032;-75
2023/07/08 00:10:25;;;;;;;6.95;3.92;;;;;;;17.23;100.00;96006.03;1051248;28;20036;-75
2023/07/08 00:10:55;;;;;;;7.45;4.35;;;;;;;17.21;100.00;96011.63;1050717;28;20028;-75
2023/07/08 00:11:26;;;;;;;6.50;4.18;;;;;;;17.21;100.00;96001.03;1050106;28;20024;-76
2023/07/08 00:11:57;;;;;;;6.20;3.97;;;;;;;17.19;100.00;96014.56;1050667;28;20024;-76
2023/07/08 00:12:27;;;;;;;12.68;4.60;;;;;;;17.18;100.00;96005.06;1046607;28;20084;-75
2023/07/08 00:12:58;;;;;;;7.88;4.32;;;;;;;17.19;100.00;96008.47;1046318;28;20025;-75
2023/07/08 00:13:29;;;;;;;6.47;4.03;;;;;;;17.17;100.00;96008.00;1046452;28;20039;-74
2023/07/08 00:13:59;;;;;;;6.30;4.20;;;;;;;17.17;100.00;96008.78;1046814;28;20414;-74
2023/07/08 00:14:29;;;;;;;8.98;4.35;;;;;;;17.15;100.00;96005.66;1055050;28;20020;-75
2023/07/08 00:15:00;;;;;;;6.13;4.03;;;;;;;17.14;100.00;96008.59;1054674;28;20024;-76
2023/07/08 00:15:34;;;;;;;6.30;4.43;;;;;;;17.13;100.00;96007.78;1051154;28;20031;-76
2023/07/08 00:16:04;;;;;;;7.15;3.95;;;;;;;17.14;100.00;96005.94;1051215;28;20026;-76
2023/07/08 00:16:35;;;;;;;8.32;4.07;;;;;;;17.13;100.00;96004.38;1047372;28;20378;-75
2023/07/08 00:17:12;;;;;;;6.90;4.28;;;;;;;17.15;100.00;96002.22;1051685;28;20031;-76
2023/07/08 00:17:42;;;;;;;8.98;4.38;;;;;;;17.13;100.00;96010.44;1051743;28;20560;-75
2023/07/08 00:18:15;;;;;;;5.60;3.75;;;;;;;17.11;100.00;96002.03;1052531;28;20022;-76
2023/07/08 00:18:45;;;;;;;7.35;4.75;;;;;;;17.12;100.00;96002.81;1050308;28;20051;-75
2023/07/08 00:19:19;;;;;;;6.75;4.13;;;;;;;17.11;100.00;96004.69;1047567;28;20020;-74
2023/07/08 00:19:50;;;;;;;5.95;4.18;;;;;;;17.08;100.00;96002.63;1048388;28;20047;-76
2023/07/08 00:20:45;;;;;;;9.68;4.13;;;;;;;17.08;100.00;96002.63;1049502;28;20024;-75
2023/07/08 00:21:16;;;;;;;8.27;4.15;;;;;;;17.06;100.00;96004.78;1040547;28;20731;-74
2023/07/08 00:21:47;;;;;;;5.30;3.78;;;;;;;17.06;100.00;96004.78;1048040;28;20141;-76
2023/07/08 00:22:17;;;;;;;6.25;4.28;;;;;;;17.05;100.00;96002.44;1047581;28;20566;-75
2023/07/08 00:22:49;;;;;;;9.57;4.25;;;;;;;17.03;100.00;96000.06;1051427;28;20016;-75
2023/07/08 00:23:21;;;;;;;6.88;4.20;;;;;;;17.04;100.00;95990.25;1047506;28;20102;-75
2023/07/08 00:23:52;;;;;;;8.65;4.15;;;;;;;17.03;100.00;95994.75;1043193;28;20032;-75
2023/07/08 00:24:22;;;;;;;6.10;3.60;;;;;;;17.03;100.00;96001.94;1043365;28;20442;-75
2023/07/08 00:24:53;;;;;;;6.47;4.22;;;;;;;17.02;100.00;95998.50;1048003;28;20593;-75
2023/07/08 00:25:24;;;;;;;8.77;4.05;;;;;;;17.00;100.00;95995.38;1045815;28;20016;-76
2023/07/08 00:25:54;;;;;;;13.60;4.00;;;;;;;17.03;100.00;95999.28;1043280;28;20446;-74
2023/07/08 00:26:26;;;;;;;8.60;3.97;;;;;;;16.86;100.00;95968.84;1038258;28;20430;-75
2023/07/08 00:26:57;;;;;;;6.38;3.88;;;;;;;17.00;100.00;95999.88;1036400;28;20080;-74
2023/07/08 00:27:27;;;;;;;5.95;4.07;;;;;;;17.00;100.00;96000.69;1039798;28;20034;-75
2023/07/08 00:27:57;;;;;;;6.65;4.15;;;;;;;17.00;100.00;95994.56;1043508;28;20035;-75
2023/07/08 00:28:28;;;;;;;5.72;3.80;;;;;;;16.99;100.00;95999.09;1047392;28;20025;-75
2023/07/08 00:28:59;;;;;;;8.48;4.32;;;;;;;16.98;100.00;95997.53;1048423;28;20024;-74
2023/07/08 00:29:29;;;;;;;5.88;4.05;;;;;;;16.97;100.00;95990.66;1048806;28;20055;-76
2023/07/08 00:30:00;;;;;;;6.78;3.83;;;;;;;16.96;100.00;95997.03;1051960;28;20020;-75
2023/07/08 00:30:31;;;;;;;6.68;4.28;;;;;;;16.95;100.00;95998.13;1050076;28;20099;-75
2023/07/08 00:31:01;;;;;;;7.20;4.10;;;;;;;16.95;100.00;95993.59;1042835;28;20021;-74
2023/07/08 00:31:32;;;;;;;8.63;3.97;;;;;;;16.96;100.00;95997.03;1043163;28;20521;-75
2023/07/08 00:32:09;;;;;;;5.25;3.72;;;;;;;16.95;100.00;95995.47;1043193;28;20029;-75
2023/07/08 00:32:41;;;;;;;7.30;3.92;;;;;;;16.95;100.00;95998.13;1041154;28;20021;-75
2023/07/08 00:33:12;;;;;;;5.72;4.13;;;;;;;16.94;100.00;95991.25;1047396;28;20090;-75
2023/07/08 00:33:42;;;;;;;5.90;4.43;;;;;;;16.93;100.00;95994.97;1047318;28;20148;-75
2023/07/08 00:34:13;;;;;;;8.00;4.68;;;;;;;16.92;100.00;95994.19;1047438;28;20472;-75
2023/07/08 00:34:43;;;;;;;8.32;4.40;;;;;;;16.94;100.00;95992.03;1047716;28;20032;-75
2023/07/08 00:35:14;;;;;;;5.43;3.88;;;;;;;16.92;100.00;95994.19;1047361;28;20406;-75
2023/07/08 00:35:44;;;;;;;7.22;3.97;;;;;;;16.93;100.00;95993.13;1047615;28;20024;-75
2023/07/08 00:36:15;;;;;;;13.43;4.00;;;;;;;16.94;100.00;95988.59;1043206;28;20027;-75
2023/07/08 00:36:45;;;;;;;5.82;3.90;;;;;;;16.94;100.00;95994.69;1046412;28;20016;-74
2023/07/08 00:37:16;;;;;;;7.63;4.20;;;;;;;16.93;100.00;95990.47;1041075;28;20039;-75
2023/07/08 00:37:46;;;;;;;7.32;4.35;;;;;;;16.91;100.00;95984.66;1042029;28;20028;-75
2023/07/08 00:38:26;;;;;;;5.72;3.83;;;;;;;16.92;100.00;95991.53;1051526;28;20043;-75
2023/07/08 00:38:57;;;;;;;9.50;4.32;;;;;;;16.93;100.00;95994.97;1047517;28;20039;-75
2023/07/08 00:39:27;;;;;;;5.32;3.75;;;;;;;16.90;100.00;95991.06;1043913;28;20146;-75
2023/07/08 00:39:58;;;;;;;9.07;4.22;;;;;;;16.90;100.00;95988.41;1047471;28;20024;-75
2023/07/08 00:40:30;;;;;;;7.13;4.28;;;;;;;16.91;100.00;95986.53;1048093;28;20032;-75
2023/07/08 00:41:11;;;;;;;6.95;3.92;;;;;;;16.90;100.00;95990.25;1047036;28;20020;-75
2023/07/08 00:41:41;;;;;;;8.85;4.03;;;;;;;16.89;100.00;95992.13;1047307;28;20055;-75
2023/07/08 00:42:18;;;;;;;7.57;4.30;;;;;;;16.90;100.00;95998.19;1047362;28;20390;-74
2023/07/08 00:42:48;;;;;;;8.07;4.78;;;;;;;16.89;100.00;95994.00;1046742;28;20034;-75
2023/07/08 00:43:21;;;;;;;5.80;4.00;;;;;;;16.89;100.00;95986.03;1048667;28;20112;-75
2023/07/08 00:43:53;;;;;;;5.18;3.58;;;;;;;16.90;100.00;95993.72;1042586;28;20032;-76
2023/07/08 00:44:23;;;;;;;6.28;3.90;;;;;;;16.89;100.00;95988.69;1040103;28;20452;-75
2023/07/08 00:44:54;;;;;;;6.60;4.30;;;;;;;16.89;100.00;95983.38;1043217;28;20028;-76
2023/07/08 00:45:29;;;;;;;8.85;4.38;;;;;;;16.90;100.00;95990.25;1035901;28;20044;-75
2023/07/08 00:46:23;;;;;;;8.45;3.72;;;;;;;16.91;100.00;95987.31;1043983;28;20017;-75
2023/07/08 00:47:04;;;;;;;9.82;3.65;;;;;;;16.90;100.00;95980.47;1043311;28;20033;-75
2023/07/08 00:47:35;;;;;;;9.98;4.07;;;;;;;16.90;100.00;95991.06;1049195;28;20078;-75
2023/07/08 00:48:17;;;;;;;6.97;4.05;;;;;;;16.92;100.00;95982.81;1043322;28;20032;-74
2023/07/08 00:48:48;;;;;;;6.35;3.83;;;;;;;16.91;100.00;95982.03;1046775;28;20020;-75
2023/07/08 00:49:53;;;;;;;7.72;4.03;;;;;;;16.91;100.00;95989.19;1045464;28;20032;-75
2023/07/08 00:50:23;;;;;;;5.70;3.90;;;;;;;16.86;100.00;95976.03;1048224;28;20526;-75
2023/07/08 00:50:53;;;;;;;6.78;4.25;;;;;;;16.90;100.00;95984.94;1051774;28;20035;-75
2023/07/08 00:51:24;;;;;;;8.65;4.20;;;;;;;16.89;100.00;95983.38;1055372;28;20712;-75
2023/07/08 00:51:54;;;;;;;8.23;4.10;;;;;;;16.88;100.00;95977.31;1056028;28;20035;-75
2023/07/08 00:52:28;;;;;;;6.18;4.28;;;;;;;16.87;100.00;95983.69;1055724;28;20031;-75
2023/07/08 00:53:33;;;;;;;6.82;4.03;;;;;;;16.89;100.00;95989.47;1051619;28;20794;-75
2023/07/08 00:54:04;;;;;;;8.52;4.40;;;;;;;16.87;100.00;95986.34;1051505;28;20028;-74
2023/07/08 00:54:35;;;;;;;6.53;3.97;;;;;;;16.86;100.00;95984.75;1047657;28;20028;-76
2023/07/08 00:55:07;;;;;;;7.72;4.32;;;;;;;16.86;100.00;95986.63;1047374;28;20036;-74
2023/07/08 00:55:37;;;;;;;5.50;3.90;;;;;;;16.82;100.00;95985.66;1047335;28;20035;-76
2023/07/08 00:56:23;;;;;;;7.35;4.63;;;;;;;16.85;100.00;95985.06;1047243;28;20203;-74
2023/07/08 00:56:58;;;;;;;7.07;4.10;;;;;;;16.84;100.00;95991.47;1047563;28;20036;-76
2023/07/08 00:57:31;;;;;;;8.65;3.95;;;;;;;16.83;100.00;95992.53;1047621;28;20032;-76
2023/07/08 00:58:01;;;;;;;9.63;4.40;;;;;;;16.83;100.00;95989.88;1047611;28;20478;-76
2023/07/08 00:58:39;;;;;;;6.25;3.70;;;;;;;16.81;100.00;95992.03;1047747;28;20028;-76
2023/07/08 00:59:11;;;;;;;12.27;4.30;;;;;;;16.81;100.00;95992.03;1047597;28;20028;-75
2023/07/08 00:59:45;;;;;;;7.57;3.55;;;;;;;16.79;100.00;95984.38;1047109;28;20059;-76
2023/07/08 01:00:16;;;;;;;6.43;4.25;;;;;;;16.81;100.00;95989.41;1043189;28;20028;-75
2023/07/08 01:00:49;;;;;;;7.28;4.60;;;;;;;16.79;100.00;95991.53;1039061;28;20088;-76
2023/07/08 01:01:20;;;;;;;5.80;4.03;;;;;;;16.76;100.00;95978.88;1042565;28;20039;-74
2023/07/08 01:01:50;;;;;;;6.65;3.70;;;;;;;16.78;100.00;95987.34;1047728;28;20405;-75
2023/07/08 01:02:21;;;;;;;7.22;3.90;;;;;;;16.64;100.00;95966.13;1051120;28;20020;-76
2023/07/08 01:02:54;;;;;;;11.07;4.35;;;;;;;16.79;100.00;95988.91;1045067;28;20021;-76
2023/07/08 01:03:24;;;;;;;6.60;4.15;;;;;;;16.79;100.00;95987.03;1051463;28;20032;-76
2023/07/08 01:04:02;;;;;;;7.70;3.90;;;;;;;16.77;100.00;95985.75;1051348;28;20523;-76
2023/07/08 01:04:32;;;;;;;6.85;4.15;;;;;;;16.76;100.00;95990.25;1048667;28;20167;-76
2023/07/08 01:05:10;;;;;;;7.57;4.03;;;;;;;16.75;100.00;95987.91;1046542;28;20713;-76
2023/07/08 01:05:40;;;;;;;7.10;4.43;;;;;;;16.75;100.00;95993.22;1039083;28;20107;-77
2023/07/08 01:06:11;;;;;;;7.07;3.80;;;;;;;16.60;100.00;95965.13;1041132;28;20060;-76
2023/07/08 01:06:44;;;;;;;6.35;4.10;;;;;;;16.75;100.00;95995.88;1043197;28;20036;-75
2023/07/08 01:07:21;;;;;;;5.82;3.67;;;;;;;16.75;100.00;95993.22;1038129;28;20029;-76
2023/07/08 01:07:54;;;;;;;5.93;4.07;;;;;;;16.75;100.00;95990.56;1035938;28;20092;-76
2023/07/08 01:08:28;;;;;;;7.53;4.00;;;;;;;16.74;100.00;95997.72;1042275;28;20025;-76
2023/07/08 01:09:05;;;;;;;7.25;4.20;;;;;;;16.72;100.00;95997.22;1044998;28;20028;-73
2023/07/08 01:09:44;;;;;;;5.60;3.85;;;;;;;16.60;100.00;95981.00;1044412;28;20111;-75
2023/07/08 01:10:16;;;;;;;6.75;3.35;;;;;;;16.70;100.00;95994.88;1043084;28;20415;-76
2023/07/08 01:10:49;;;;;;;7.90;4.60;;;;;;;16.69;100.00;95998.56;1041954;28;20474;-76
2023/07/08 01:11:21;;;;;;;5.60;4.03;;;;;;;16.70;100.00;95994.88;1038790;28;20033;-76
2023/07/08 01:11:51;;;;;;;9.82;4.35;;;;;;;16.70;100.00;95992.22;1035702;28;20057;-75
2023/07/08 01:12:27;;;;;;;5.47;3.67;;;;;;;16.70;100.00;95996.75;1035504;28;20502;-75
2023/07/08 01:12:59;;;;;;;8.65;3.80;;;;;;;16.65;100.00;95992.31;1040798;28;20518;-76
2023/07/08 01:13:32;;;;;;;8.73;3.72;;;;;;;16.71;100.00;95999.09;1051394;28;20101;-76
2023/07/08 01:14:05;;;;;;;7.00;3.97;;;;;;;16.71;100.00;95999.09;1051456;28;20040;-75
2023/07/08 01:14:36;;;;;;;8.63;4.18;;;;;;;16.71;100.00;95996.44;1043957;28;20469;-75
2023/07/08 01:15:06;;;;;;;10.57;4.15;;;;;;;16.70;100.00;95988.78;1042173;28;20107;-76
2023/07/08 01:15:40;;;;;;;4.70;3.50;;;;;;;16.68;100.00;95997.03;1038910;28;20033;-76
2023/07/08 01:16:11;;;;;;;6.65;3.90;;;;;;;16.67;100.00;95992.03;1040930;28;20097;-75
2023/07/08 01:16:41;;;;;;;5.88;4.13;;;;;;;16.66;100.00;95995.75;1047505;28;20058;-75
2023/07/08 01:17:13;;;;;;;6.90;4.10;;;;;;;16.65;100.00;95989.66;1051444;28;20039;-75
2023/07/08 01:17:44;;;;;;;7.63;4.07;;;;;;;16.65;100.00;95992.31;1047078;28;20320;-75
2023/07/08 01:18:20;;;;;;;5.75;3.95;;;;;;;16.62;100.00;95987.59;1047076;28;20115;-76
2023/07/08 01:18:54;;;;;;;6.30;4.05;;;;;;;16.61;100.00;95991.34;1050881;28;20027;-75
2023/07/08 01:19:32;;;;;;;7.28;4.47;;;;;;;16.61;100.00;95993.19;1051477;28;20517;-75
2023/07/08 01:20:06;;;;;;;5.50;3.90;;;;;;;16.59;100.00;95990.03;1047248;28;20152;-76
2023/07/08 01:20:37;;;;;;;6.28;3.88;;;;;;;16.56;100.00;95994.06;1047166;28;20032;-75
2023/07/08 01:21:38;;;;;;;6.03;3.70;;;;;;;16.56;100.00;95991.41;1038375;28;20057;-75
2023/07/08 01:22:09;;;;;;;7.35;3.88;;;;;;;16.54;100.00;95988.28;1042461;28;20163;-75
2023/07/08 01:22:40;;;;;;;5.03;4.10;;;;;;;16.53;100.00;95991.22;1039000;28;20491;-76
2023/07/08 01:23:11;;;;;;;6.60;4.40;;;;;;;16.48;100.00;95984.94;1047273;28;20182;-76
2023/07/08 01:23:41;;;;;;;12.95;4.68;;;;;;;16.51;100.00;95996.81;1040363;28;20075;-75
2023/07/08 01:24:12;;;;;;;6.88;4.07;;;;;;;16.49;100.00;95993.66;1043140;28;20159;-75
2023/07/08 01:24:43;;;;;;;8.73;4.25;;;;;;;16.48;100.00;95992.88;1043024;28;20036;-76
2023/07/08 01:25:13;;;;;;;6.45;4.60;;;;;;;16.46;100.00;95992.41;1039519;28;20113;-76
2023/07/08 01:25:44;;;;;;;6.95;4.53;;;;;;;16.47;100.00;95990.53;1042018;28;20037;-75
2023/07/08 01:26:14;;;;;;;5.32;3.70;;;;;;;16.47;100.00;95995.84;1038995;28;20060;-75
2023/07/08 01:26:45;;;;;;;5.22;3.75;;;;;;;16.45;100.00;95995.34;1036477;28;20010;-74
2023/07/08 01:27:17;;;;;;;7.47;4.22;;;;;;;16.43;100.00;95984.25;1037341;28;20025;-75
2023/07/08 01:27:49;;;;;;;5.25;3.45;;;;;;;16.42;100.00;95994.06;1046142;28;20066;-75
2023/07/08 01:28:19;;;;;;;6.78;3.90;;;;;;;16.38;100.00;95984.34;1039051;28;20406;-75
2023/07/08 01:28:50;;;;;;;5.30;3.72;;;;;;;16.40;100.00;95990.94;1042873;28;20028;-75
2023/07/08 01:29:21;;;;;;;7.60;3.95;;;;;;;16.39;100.00;95991.22;1042942;28;20048;-75
2023/07/08 01:29:51;;;;;;;5.55;3.78;;;;;;;16.38;100.00;95993.09;1039338;28;20032;-75
2023/07/08 01:30:22;;;;;;;7.28;4.32;;;;;;;16.23;100.00;95972.97;1043194;28;20025;-75
2023/07/08 01:30:52;;;;;;;5.38;4.40;;;;;;;16.37;100.00;95998.69;1038905;28;20029;-75
2023/07/08 01:31:23;;;;;;;6.65;4.13;;;;;;;16.18;100.00;95970.41;1038424;28;20112;-75
2023/07/08 01:31:55;;;;;;;5.95;4.10;;;;;;;16.21;100.00;95975.09;1038979;28;20177;-75
2023/07/08 01:32:26;;;;;;;6.15;4.00;;;;;;;16.36;100.00;95997.09;1043048;28;20806;-74
2023/07/08 01:32:59;;;;;;;6.97;4.10;;;;;;;16.33;100.00;95995.84;1051280;28;20209;-74
2023/07/08 01:33:29;;;;;;;8.93;4.53;;;;;;;16.35;100.00;95996.31;1043028;28;20056;-75
2023/07/08 01:34:00;;;;;;;7.72;4.03;;;;;;;16.36;100.00;95997.09;1036896;28;20018;-76
2023/07/08 01:34:31;;;;;;;6.07;3.67;;;;;;;16.37;100.00;95998.69;1039047;28;20052;-75
2023/07/08 01:35:02;;;;;;;8.77;3.58;;;;;;;16.36;100.00;96005.03;1035349;28;20025;-74
2023/07/08 01:35:32;;;;;;;8.18;4.32;;;;;;;16.35;100.00;95991.00;1042230;28;20032;-75
2023/07/08 01:36:03;;;;;;;10.57;4.03;;;;;;;16.33;100.00;96002.97;1042970;28;20506;-75
2023/07/08 01:36:37;;;;;;;6.25;3.70;;;;;;;16.30;100.00;95998.25;1043236;28;20549;-75
2023/07/08 01:37:09;;;;;;;8.10;4.20;;;;;;;16.30;100.00;95998.25;1042762;28;20029;-74
2023/07/08 01:37:42;;;;;;;7.15;3.67;;;;;;;16.27;100.00;95997.78;1038064;28;20033;-75
2023/07/08 01:38:12;;;;;;;5.65;3.65;;;;;;;16.25;100.00;95999.91;1038955;28;20096;-73
2023/07/08 01:38:43;;;;;;;6.43;4.30;;;;;;;16.18;100.00;95991.56;1035875;28;20116;-74
2023/07/08 01:39:15;;;;;;;5.22;3.72;;;;;;;16.22;100.00;95997.06;1046076;28;20103;-75
2023/07/08 01:39:45;;;;;;;8.82;4.45;;;;;;;16.20;100.00;96000.03;1047204;28;20020;-76
2023/07/08 01:40:16;;;;;;;6.80;3.90;;;;;;;16.21;100.00;96000.81;1047492;28;20028;-76
2023/07/08 01:40:54;;;;;;;6.72;3.83;;;;;;;16.19;100.00;95998.44;1045139;28;20052;-75
2023/07/08 01:41:24;;;;;;;6.10;3.78;;;;;;;16.19;100.00;95995.78;1042218;28;20100;-75
2023/07/08 01:41:55;;;;;;;11.48;3.90;;;;;;;16.17;100.00;95997.19;1043077;28;20055;-75
2023/07/08 01:42:26;;;;;;;5.80;3.38;;;;;;;16.18;100.00;95996.88;1045147;28;20536;-75
2023/07/08 01:42:57;;;;;;;7.60;4.13;;;;;;;16.19;100.00;95997.66;1051371;28;20032;-74
2023/07/08 01:43:28;;;;;;;9.15;3.92;;;;;;;16.19;100.00;95993.13;1051148;28;20406;-75
2023/07/08 01:43:59;;;;;;;13.82;4.38;;;;;;;16.20;100.00;95994.72;1042285;28;20032;-75
2023/07/08 01:44:35;;;;;;;7.68;3.80;;;;;;;16.20;100.00;95989.44;1038903;28;20029;-75
2023/07/08 01:45:13;;;;;;;8.68;4.00;;;;;;;16.18;100.00;95999.53;1040036;28;20029;-75
2023/07/08 01:45:43;;;;;;;7.72;3.97;;;;;;;16.19;100.00;95993.13;1046511;28;20024;-75
2023/07/08 01:46:17;;;;;;;6.25;4.00;;;;;;;16.18;100.00;95994.22;1051363;28;20031;-75
2023/07/08 01:46:48;;;;;;;5.00;3.65;;;;;;;16.17;100.00;95995.31;1047182;28;20036;-76
2023/07/08 01:47:20;;;;;;;8.73;4.07;;;;;;;16.14;100.00;95987.94;1047191;28;20386;-75
2023/07/08 01:47:58;;;;;;;5.82;3.92;;;;;;;16.02;100.00;95974.38;1047108;28;20024;-75
2023/07/08 01:48:31;;;;;;;9.25;4.50;;;;;;;16.13;100.00;95994.31;1043067;28;20748;-75
2023/07/08 01:49:01;;;;;;;5.68;3.75;;;;;;;16.12;100.00;95991.97;1042958;28;20017;-75
2023/07/08 01:49:32;;;;;;;7.97;3.95;;;;;;;16.11;100.00;95996.47;1042894;28;20614;-75
2023/07/08 01:50:02;;;;;;;5.45;3.65;;;;;;;16.09;100.00;95998.63;1039280;28;20017;-75
2023/07/08 01:50:35;;;;;;;6.97;3.75;;;;;;;16.04;100.00;95982.84;1043121;28;20667;-76
2023/07/08 01:51:06;;;;;;;8.45;4.50;;;;;;;16.06;100.00;95990.47;1042225;28;20457;-75
2023/07/08 01:51:36;;;;;;;9.30;4.13;;;;;;;16.05;100.00;95994.97;1043250;28;20024;-75
2023/07/08 01:52:07;;;;;;;7.30;3.88;;;;;;;16.03;100.00;95995.28;1047099;28;20028;-75
2023/07/08 01:52:38;;;;;;;6.53;4.15;;;;;;;16.03;100.00;95994.50;1047025;28;20150;-74
2023/07/08 01:53:14;;;;;;;7.63;4.28;;;;;;;15.99;100.00;95993.50;1047022;28;20060;-75
2023/07/08 01:53:45;;;;;;;9.30;4.18;;;;;;;16.02;100.00;95990.25;1046945;28;20041;-76
2023/07/08 01:54:15;;;;;;;10.40;4.28;;;;;;;16.02;100.00;95987.63;1051105;28;20035;-76
2023/07/08 01:54:54;;;;;;;6.55;4.60;;;;;;;16.01;100.00;95992.13;1051347;28;20039;-75
2023/07/08 01:55:25;;;;;;;6.55;4.10;;;;;;;16.01;100.00;95992.13;1044590;28;20032;-75
2023/07/08 01:55:55;;;;;;;6.40;4.10;;;;;;;16.02;100.00;95988.41;1041413;28;20016;-75
2023/07/08 01:56:26;;;;;;;6.30;3.72;;;;;;;16.04;100.00;95990.78;1042979;28;20104;-75
2023/07/08 01:56:57;;;;;;;7.45;4.70;;;;;;;16.04;100.00;95990.78;1044070;28;20055;-76
2023/07/08 01:57:27;;;;;;;6.20;3.83;;;;;;;16.04;100.00;95993.41;1047308;28;20485;-75
2023/07/08 01:57:58;;;;;;;7.63;4.32;;;;;;;16.05;100.00;95989.69;1050389;28;20020;-76
2023/07/08 01:58:28;;;;;;;7.43;4.38;;;;;;;16.06;100.00;95985.97;1042947;28;20075;-75
2023/07/08 01:58:59;;;;;;;7.25;3.90;;;;;;;16.04;100.00;95988.13;1043064;28;20078;-76
2023/07/08 01:59:29;;;;;;;5.68;3.90;;;;;;;16.04;100.00;95988.13;1044803;28;20133;-74
2023/07/08 02:00:00;;;;;;;6.80;4.13;;;;;;;16.02;100.00;95993.69;1042945;28;20033;-73
2023/07/08 02:00:30;;;;;;;6.15;4.38;;;;;;;16.03;100.00;95994.50;1047104;28;20056;-75
2023/07/08 02:01:01;;;;;;;6.95;4.43;;;;;;;16.03;100.00;95994.50;1046572;28;20020;-75
2023/07/08 02:01:31;;;;;;;6.30;3.60;;;;;;;16.00;100.00;95987.91;1046920;28;20055;-75
2023/07/08 02:02:02;;;;;;;7.22;3.90;;;;;;;16.00;100.00;95990.56;1047369;28;20025;-75
2023/07/08 02:02:32;;;;;;;8.18;3.70;;;;;;;16.02;100.00;95998.22;1047405;28;20025;-74
2023/07/08 02:03:03;;;;;;;6.43;4.10;;;;;;;15.96;100.00;95988.78;1046955;28;20106;-75
2023/07/08 02:03:34;;;;;;;6.65;4.30;;;;;;;15.99;100.00;95994.28;1047183;28;20477;-74
2023/07/08 02:04:04;;;;;;;6.78;4.20;;;;;;;15.98;100.00;95992.72;1046960;28;20025;-75
2023/07/08 02:04:35;;;;;;;7.30;3.83;;;;;;;15.99;100.00;95994.28;1047052;28;20028;-74
2023/07/08 02:05:05;;;;;;;4.20;3.38;;;;;;;16.00;100.00;96000.38;1051143;28;20075;-75
2023/07/08 02:05:35;;;;;;;5.85;3.90;;;;;;;15.99;100.00;95998.78;1051328;28;20026;-75
2023/07/08 02:06:07;;;;;;;8.70;4.35;;;;;;;15.97;100.00;95991.16;1046846;28;20429;-75
2023/07/08 02:06:38;;;;;;;7.00;3.90;;;;;;;15.99;100.00;95996.13;1042880;28;20021;-75
2023/07/08 02:07:08;;;;;;;6.60;4.20;;;;;;;15.97;100.00;95990.38;1042951;28;20025;-75
2023/07/08 02:07:39;;;;;;;6.38;4.07;;;;;;;15.97;100.00;95991.16;1043159;28;20032;-75
2023/07/08 02:08:09;;;;;;;5.32;3.85;;;;;;;15.97;100.00;95993.00;1046919;28;20514;-75
2023/07/08 02:08:40;;;;;;;5.97;4.28;;;;;;;15.96;100.00;95997.53;1042745;28;20025;-75
2023/07/08 02:09:10;;;;;;;6.80;3.95;;;;;;;15.95;100.00;95992.50;1042859;28;20029;-76
2023/07/08 02:09:41;;;;;;;7.68;4.43;;;;;;;15.95;100.00;95993.28;1042824;28;20375;-75
2023/07/08 02:10:11;;;;;;;8.70;4.32;;;;;;;15.95;100.00;95997.81;1039030;28;20111;-76
2023/07/08 02:10:44;;;;;;;9.07;4.03;;;;;;;15.87;100.00;95977.31;1047000;28;20382;-75
2023/07/08 02:11:14;;;;;;;6.00;4.30;;;;;;;15.95;100.00;95993.28;1043057;28;20401;-75
2023/07/08 02:11:45;;;;;;;8.90;4.20;;;;;;;15.92;100.00;95990.44;1047328;28;20017;-75
2023/07/08 02:12:15;;;;;;;7.40;4.43;;;;;;;15.93;100.00;95997.31;1051241;28;20747;-75
2023/07/08 02:12:46;;;;;;;8.38;4.20;;;;;;;15.94;100.00;95994.38;1047702;28;20025;-75
2023/07/08 02:13:16;;;;;;;6.70;3.97;;;;;;;15.91;100.00;95991.53;1046911;28;20466;-75
2023/07/08 02:13:47;;;;;;;6.78;4.13;;;;;;;15.91;100.00;95991.53;1050339;28;20024;-75
2023/07/08 02:14:17;;;;;;;5.88;3.55;;;;;;;15.89;100.00;95988.38;1051175;28;20032;-75
2023/07/08 02:14:48;;;;;;;5.60;3.83;;;;;;;15.88;100.00;95992.09;1048686;28;20023;-75
2023/07/08 02:15:18;;;;;;;6.28;4.10;;;;;;;15.87;100.00;95991.31;1047105;28;20020;-75
2023/07/08 02:15:49;;;;;;;6.97;3.85;;;;;;;15.87;100.00;95988.66;1050786;28;20028;-75
2023/07/08 02:16:19;;;;;;;10.90;4.65;;;;;;;15.87;100.00;95991.31;1050292;28;20128;-73
2023/07/08 02:16:49;;;;;;;6.35;3.63;;;;;;;15.86;100.00;95986.28;1047011;28;20027;-74
2023/07/08 02:17:20;;;;;;;7.68;4.00;;;;;;;15.85;100.00;95984.72;1047047;28;20044;-74
2023/07/08 02:17:50;;;;;;;6.13;4.25;;;;;;;15.86;100.00;95988.94;1047430;28;20021;-74
2023/07/08 02:18:23;;;;;;;7.75;4.70;;;;;;;15.85;100.00;95982.88;1046924;28;20012;-75
2023/07/08 02:18:54;;;;;;;6.43;3.88;;;;;;;15.85;100.00;95984.72;1050972;28;20080;-74
2023/07/08 02:19:24;;;;;;;7.10;4.03;;;;;;;15.86;100.00;95981.00;1051124;28;20031;-75
2023/07/08 02:19:55;;;;;;;13.23;4.00;;;;;;;15.85;100.00;95984.72;1051326;28;20054;-75
2023/07/08 02:20:26;;;;;;;5.75;4.22;;;;;;;15.87;100.00;95985.25;1056786;27;20092;-75
2023/07/08 02:20:56;;;;;;;8.23;4.30;;;;;;;15.85;100.00;95982.09;1055282;28;20104;-73
2023/07/08 02:21:30;;;;;;;6.03;3.83;;;;;;;15.86;100.00;95979.16;1054986;28;20031;-74
2023/07/08 02:22:01;;;;;;;7.97;4.05;;;;;;;15.86;100.00;95978.34;1054782;28;20485;-75
2023/07/08 02:22:31;;;;;;;11.45;3.83;;;;;;;15.86;100.00;95981.00;1046906;28;20021;-75
2023/07/08 02:23:02;;;;;;;8.27;3.70;;;;;;;15.87;100.00;95978.09;1046672;28;20081;-74
2023/07/08 02:23:32;;;;;;;8.30;4.90;;;;;;;15.89;100.00;95975.13;1047619;28;20028;-75
2023/07/08 02:24:03;;;;;;;5.88;3.90;;;;;;;15.88;100.00;95973.56;1047468;28;20039;-74
2023/07/08 02:24:33;;;;;;;5.97;4.05;;;;;;;15.87;100.00;95979.94;1047242;28;20518;-75
2023/07/08 02:25:05;;;;;;;5.70;4.05;;;;;;;15.86;100.00;95973.06;1047008;28;20102;-75
2023/07/08 02:25:35;;;;;;;6.80;4.10;;;;;;;15.85;100.00;95969.63;1046923;28;20013;-74
2023/07/08 02:26:06;;;;;;;7.18;4.80;;;;;;;15.85;100.00;95971.50;1047436;28;20466;-74
2023/07/08 02:26:36;;;;;;;8.23;4.60;;;;;;;15.84;100.00;95977.88;1047764;28;20020;-74
2023/07/08 02:27:07;;;;;;;6.57;3.95;;;;;;;15.83;100.00;95974.44;1047553;28;20036;-74
2023/07/08 02:27:37;;;;;;;7.00;4.30;;;;;;;15.83;100.00;95974.44;1047730;28;20025;-75
2023/07/08 02:28:08;;;;;;;7.50;4.40;;;;;;;15.83;100.00;95978.94;1047430;28;20596;-75
2023/07/08 02:28:38;;;;;;;9.80;4.03;;;;;;;15.82;100.00;95972.84;1047353;28;20060;-75
2023/07/08 02:29:09;;;;;;;7.72;4.05;;;;;;;15.81;100.00;95979.25;1047208;28;20033;-74
2023/07/08 02:29:39;;;;;;;6.22;4.10;;;;;;;15.82;100.00;95972.06;1047441;28;20031;-75